Time;durP1;ratioP1;P1;durP2;ratioP2;P2;SDS_P1;SDS_P2;PMS_P1;PMS_P2;Temp;Humidity;BMP_temperature;BMP_pressure;BME280_temperature;BME280_humidity;BME280_pressure;Samples;Min_cycle;Max_cycle;Signal;HPM_P1;HPM_P2
2023/05/15 00:02:14;;;;;;;10.57;7.70;;;10.10;85.80;;;;;;5040713;28;20025;-75
2023/05/15 00:04:39;;;;;;;9.93;7.32;;;10.00;85.60;;;;;;5046477;28;20512;-75
2023/05/15 00:07:05;;;;;;;10.45;7.70;;;10.00;86.40;;;;;;5038494;28;20037;-75
2023/05/15 00:09:30;;;;;;;9.68;7.72;;;9.90;86.00;;;;;;5049315;28;20032;-75
2023/05/15 00:11:56;;;;;;;16.15;8.30;;;10.00;87.10;;;;;;5046261;28;20037;-75
2023/05/15 00:14:21;;;;;;;12.23;8.27;;;9.90;87.60;;;;;;5042564;28;21425;-75
2023/05/15 00:16:46;;;;;;;11.77;7.50;;;9.90;87.60;;;;;;5048364;28;20040;-75
2023/05/15 00:19:12;;;;;;;13.00;7.72;;;9.90;87.90;;;;;;5044589;28;20477;-75
2023/05/15 00:21:38;;;;;;;10.18;7.93;;;9.90;88.40;;;;;;5051410;28;20357;-75
2023/05/15 00:24:03;;;;;;;12.63;8.10;;;9.80;87.80;;;;;;5049102;28;20523;-75
2023/05/15 00:26:29;;;;;;;11.57;7.50;;;9.80;88.60;;;;;;5050991;28;20909;-75
2023/05/15 00:28:55;;;;;;;11.05;8.02;;;9.80;88.70;;;;;;5043538;28;20040;-75
2023/05/15 00:31:20;;;;;;;10.73;8.80;;;9.80;89.00;;;;;;5047970;28;20446;-75
2023/05/15 00:33:46;;;;;;;11.05;8.65;;;9.80;88.90;;;;;;5058488;28;20043;-75
2023/05/15 00:36:12;;;;;;;13.15;8.55;;;9.70;88.60;;;;;;5045691;28;20025;-75
2023/05/15 00:38:37;;;;;;;13.73;8.40;;;9.80;89.10;;;;;;5052179;28;20394;-75
2023/05/15 00:41:06;;;;;;;11.10;8.48;;;9.80;89.40;;;;;;5051852;28;20035;-75
2023/05/15 00:43:31;;;;;;;14.80;9.68;;;9.70;89.60;;;;;;5047017;28;20028;-75
2023/05/15 00:45:58;;;;;;;12.65;8.43;;;9.70;89.50;;;;;;5054705;28;20440;-75
2023/05/15 00:48:25;;;;;;;13.73;8.55;;;9.70;88.80;;;;;;5049619;28;20365;-75
2023/05/15 00:50:50;;;;;;;12.20;8.77;;;9.60;89.00;;;;;;5048063;28;20032;-75
2023/05/15 00:53:16;;;;;;;11.10;8.05;;;9.60;89.00;;;;;;5046572;28;20032;-75
2023/05/15 00:55:45;;;;;;;11.68;8.68;;;9.60;89.00;;;;;;5053374;28;20074;-75
2023/05/15 00:58:13;;;;;;;11.70;8.65;;;9.60;89.40;;;;;;5048521;28;20033;-75
2023/05/15 01:00:41;;;;;;;11.07;8.68;;;9.50;89.60;;;;;;5046038;28;20064;-75
2023/05/15 01:03:06;;;;;;;13.68;9.48;;;9.50;89.40;;;;;;5051819;28;20029;-75
2023/05/15 01:05:32;;;;;;;13.05;9.55;;;9.50;89.70;;;;;;5047786;28;20044;-75
2023/05/15 01:08:15;;;;;;;14.50;9.13;;;9.50;89.90;;;;;;5053303;28;20051;-75
2023/05/15 01:10:42;;;;;;;15.73;9.60;;;9.40;90.10;;;;;;5049624;28;20029;-75
2023/05/15 01:13:08;;;;;;;11.88;9.10;;;9.40;90.30;;;;;;5051639;28;20032;-75
2023/05/15 01:15:34;;;;;;;11.70;8.75;;;9.40;90.50;;;;;;5042089;28;20036;-75
2023/05/15 01:18:00;;;;;;;12.32;8.85;;;9.30;90.30;;;;;;5044041;28;20035;-75
2023/05/15 01:20:26;;;;;;;11.18;8.73;;;9.30;89.90;;;;;;5046540;28;20505;-75
2023/05/15 01:23:04;;;;;;;12.18;9.32;;;9.20;89.60;;;;;;5050983;28;20037;-75
2023/05/15 01:25:52;;;;;;;13.68;9.15;;;9.20;90.10;;;;;;5052288;28;20060;-75
2023/05/15 01:28:25;;;;;;;14.30;9.52;;;9.10;89.80;;;;;;5050230;28;20412;-75
2023/05/15 01:30:54;;;;;;;15.15;9.38;;;9.10;90.20;;;;;;5044228;28;20025;-75
2023/05/15 01:33:27;;;;;;;14.68;9.73;;;9.10;90.50;;;;;;5043776;28;20025;-75
2023/05/15 01:36:13;;;;;;;13.98;10.05;;;9.10;90.80;;;;;;5049970;28;20033;-75
2023/05/15 01:38:43;;;;;;;14.00;10.68;;;9.10;91.00;;;;;;5044713;28;20462;-75
2023/05/15 01:41:20;;;;;;;13.20;10.63;;;9.10;91.30;;;;;;5062605;28;20121;-75
2023/05/15 01:43:51;;;;;;;13.95;9.63;;;9.10;91.10;;;;;;5054904;28;20021;-75
2023/05/15 01:46:20;;;;;;;14.18;9.65;;;9.00;91.30;;;;;;5054101;28;20439;-75
2023/05/15 01:48:47;;;;;;;14.48;10.13;;;9.00;91.50;;;;;;5060502;28;20032;-75
2023/05/15 01:51:15;;;;;;;13.75;10.02;;;9.00;91.80;;;;;;5060332;28;20029;-75
2023/05/15 01:53:42;;;;;;;18.02;10.45;;;9.00;91.90;;;;;;5052761;28;20331;-75
2023/05/15 01:56:10;;;;;;;15.38;10.10;;;9.00;91.70;;;;;;5050354;28;20021;-75
2023/05/15 01:58:38;;;;;;;15.05;11.63;;;8.90;91.70;;;;;;5052942;28;20351;-75
2023/05/15 02:01:04;;;;;;;13.23;10.02;;;8.90;91.80;;;;;;5051501;28;20442;-75
2023/05/15 02:03:35;;;;;;;13.35;10.60;;;8.80;91.90;;;;;;5053366;28;20082;-75
2023/05/15 02:06:02;;;;;;;14.60;10.43;;;8.80;92.40;;;;;;5049106;28;20112;-75
2023/05/15 02:08:30;;;;;;;16.35;11.07;;;8.80;92.20;;;;;;5063760;28;20032;-75
2023/05/15 02:10:58;;;;;;;12.70;10.73;;;8.80;92.30;;;;;;5046389;28;20036;-75
2023/05/15 02:13:25;;;;;;;14.63;11.25;;;8.80;91.90;;;;;;5050979;28;20035;-75
2023/05/15 02:15:51;;;;;;;15.70;10.65;;;8.80;91.60;;;;;;5048887;28;20106;-75
2023/05/15 02:18:17;;;;;;;20.00;11.23;;;8.70;91.50;;;;;;5046112;28;20052;-75
2023/05/15 02:20:43;;;;;;;11.95;10.23;;;8.70;91.60;;;;;;5059502;28;20170;-75
2023/05/15 02:23:08;;;;;;;16.50;10.52;;;8.70;91.90;;;;;;5048239;28;20379;-75
2023/05/15 02:26:07;;;;;;;13.85;10.88;;;8.70;92.10;;;;;;5047204;28;20092;-75
2023/05/15 02:28:43;;;;;;;15.48;11.18;;;8.70;92.10;;;;;;5048876;28;20025;-75
2023/05/15 02:31:42;;;;;;;14.43;11.45;;;8.60;92.30;;;;;;5047307;28;20614;-75
2023/05/15 02:34:28;;;;;;;17.48;11.10;;;8.60;92.00;;;;;;5032324;28;20785;-75
2023/05/15 02:36:59;;;;;;;19.13;12.10;;;8.60;92.30;;;;;;5050789;28;20068;-75
2023/05/15 02:39:25;;;;;;;14.02;10.73;;;8.60;92.50;;;;;;5049893;28;20021;-75
2023/05/15 02:41:52;;;;;;;14.68;12.02;;;8.60;92.40;;;;;;5049377;28;20025;-75
2023/05/15 02:44:19;;;;;;;15.40;11.52;;;8.50;92.50;;;;;;5045495;28;20028;-75
2023/05/15 02:46:46;;;;;;;16.10;11.88;;;8.60;92.90;;;;;;5048591;28;20417;-75
2023/05/15 02:49:13;;;;;;;16.27;11.57;;;8.50;92.70;;;;;;5049715;28;20037;-75
2023/05/15 02:51:39;;;;;;;14.68;11.98;;;8.50;93.00;;;;;;5054694;28;20105;-75
2023/05/15 02:54:05;;;;;;;16.40;12.50;;;8.50;93.00;;;;;;5057191;28;20032;-75
2023/05/15 02:56:30;;;;;;;16.38;11.85;;;8.40;92.80;;;;;;5047885;28;20033;-75
2023/05/15 02:58:56;;;;;;;15.88;12.55;;;8.40;92.60;;;;;;5042267;28;20021;-75
2023/05/15 03:01:22;;;;;;;15.85;11.55;;;8.40;92.50;;;;;;5049168;28;20496;-75
2023/05/15 03:03:47;;;;;;;16.67;11.68;;;8.30;92.70;;;;;;5051180;28;20270;-75
2023/05/15 03:06:13;;;;;;;15.18;12.45;;;8.30;92.70;;;;;;5050832;28;20028;-75
2023/05/15 03:08:38;;;;;;;16.73;12.50;;;8.20;92.70;;;;;;5044840;28;20064;-75
2023/05/15 03:11:04;;;;;;;16.75;12.15;;;8.30;93.20;;;;;;5041908;28;20037;-75
2023/05/15 03:13:30;;;;;;;19.30;12.85;;;8.30;93.30;;;;;;5053771;28;20071;-75
2023/05/15 03:15:56;;;;;;;17.08;12.88;;;8.30;93.30;;;;;;5044847;28;20063;-75
2023/05/15 03:18:21;;;;;;;16.05;12.73;;;8.30;93.40;;;;;;5054494;28;20335;-75
2023/05/15 03:20:48;;;;;;;14.82;12.30;;;8.30;93.40;;;;;;5048834;28;20529;-75
2023/05/15 03:23:14;;;;;;;15.40;12.25;;;8.30;93.40;;;;;;5051786;28;20048;-75
2023/05/15 03:25:39;;;;;;;17.95;12.73;;;8.30;93.30;;;;;;5057299;28;20084;-75
2023/05/15 03:28:05;;;;;;;17.27;13.20;;;8.30;93.60;;;;;;5049732;28;20520;-75
2023/05/15 03:30:30;;;;;;;21.27;14.38;;;8.40;93.70;;;;;;5069720;28;20037;-75
2023/05/15 03:32:56;;;;;;;17.95;13.27;;;8.40;93.70;;;;;;5044570;28;20449;-75
2023/05/15 03:35:23;;;;;;;17.40;14.30;;;8.40;93.60;;;;;;5049719;28;20037;-75
2023/05/15 03:37:48;;;;;;;15.70;13.05;;;8.40;93.70;;;;;;5046651;28;20036;-75
2023/05/15 03:40:14;;;;;;;16.63;13.23;;;8.40;93.50;;;;;;5056817;28;20039;-75
2023/05/15 03:42:39;;;;;;;19.00;13.20;;;8.40;93.50;;;;;;5049929;28;20396;-75
2023/05/15 03:45:06;;;;;;;15.85;13.07;;;8.40;93.40;;;;;;5054185;28;20025;-75
2023/05/15 03:47:31;;;;;;;16.42;13.18;;;8.40;93.40;;;;;;5047934;28;20357;-75
2023/05/15 03:49:57;;;;;;;21.90;12.75;;;8.50;93.30;;;;;;5049031;28;20040;-75
2023/05/15 03:52:22;;;;;;;18.35;13.48;;;8.50;93.20;;;;;;5054299;28;20233;-75
2023/05/15 03:54:49;;;;;;;16.25;13.80;;;8.50;93.20;;;;;;5050472;28;20104;-75
2023/05/15 03:57:14;;;;;;;16.75;14.00;;;8.50;93.20;;;;;;5054751;28;20052;-75
2023/05/15 03:59:40;;;;;;;16.25;13.88;;;8.50;93.00;;;;;;5060441;28;20422;-75
2023/05/15 04:02:06;;;;;;;17.05;14.25;;;8.50;93.00;;;;;;5041465;28;20035;-75
2023/05/15 04:04:31;;;;;;;19.05;13.90;;;8.60;93.00;;;;;;5043794;28;20466;-75
2023/05/15 04:06:57;;;;;;;17.25;13.38;;;8.60;93.10;;;;;;5041753;28;20040;-75
2023/05/15 04:09:22;;;;;;;17.33;13.27;;;8.60;92.90;;;;;;5045132;28;20497;-75
2023/05/15 04:11:48;;;;;;;15.52;13.27;;;8.70;93.10;;;;;;5048235;28;20074;-75
2023/05/15 04:14:13;;;;;;;19.63;13.00;;;8.70;93.00;;;;;;5047710;28;20370;-75
2023/05/15 04:16:39;;;;;;;16.80;13.98;;;8.70;93.10;;;;;;5042322;28;20116;-75
2023/05/15 04:19:05;;;;;;;17.10;13.68;;;8.80;93.00;;;;;;5046212;28;20025;-75
2023/05/15 04:21:30;;;;;;;16.88;14.02;;;8.80;93.10;;;;;;5045277;28;20481;-75
2023/05/15 04:23:59;;;;;;;18.92;13.20;;;8.90;93.00;;;;;;5045178;28;20025;-75
2023/05/15 04:26:25;;;;;;;17.25;13.55;;;8.90;93.00;;;;;;5044325;28;20040;-75
2023/05/15 04:28:50;;;;;;;15.88;13.40;;;8.90;92.90;;;;;;5046312;28;20040;-75
2023/05/15 04:31:16;;;;;;;16.98;14.35;;;9.00;93.00;;;;;;5047166;28;20037;-76
2023/05/15 04:33:41;;;;;;;16.48;14.60;;;9.10;93.00;;;;;;5040180;28;20437;-76
2023/05/15 04:36:08;;;;;;;17.75;14.23;;;9.10;92.80;;;;;;5057722;28;20069;-76
2023/05/15 04:38:34;;;;;;;17.13;12.68;;;9.20;92.70;;;;;;5033864;28;20689;-76
2023/05/15 04:40:59;;;;;;;16.85;13.70;;;9.30;92.70;;;;;;5031276;28;20070;-76
2023/05/15 04:43:25;;;;;;;19.25;14.23;;;9.30;92.60;;;;;;5037548;28;20068;-78
2023/05/15 04:45:50;;;;;;;21.92;14.07;;;9.40;92.40;;;;;;5050300;28;20025;-74
2023/05/15 04:48:18;;;;;;;14.48;12.30;;;9.50;92.40;;;;;;5042790;28;20485;-75
2023/05/15 04:50:43;;;;;;;17.38;13.43;;;9.60;92.60;;;;;;5050034;28;20021;-75
2023/05/15 04:53:09;;;;;;;16.38;12.35;;;9.60;92.70;;;;;;5046254;28;20090;-75
2023/05/15 04:55:34;;;;;;;17.73;12.70;;;9.70;92.70;;;;;;5047589;28;20029;-75
2023/05/15 04:58:00;;;;;;;16.73;12.45;;;9.80;92.50;;;;;;5042251;28;20366;-75
2023/05/15 05:00:25;;;;;;;16.38;12.38;;;9.90;92.30;;;;;;5042951;28;20027;-74
2023/05/15 05:02:51;;;;;;;14.55;11.60;;;9.90;92.40;;;;;;5040403;28;20043;-74
2023/05/15 05:05:16;;;;;;;18.00;12.77;;;10.00;92.10;;;;;;5049426;28;20458;-77
2023/05/15 05:07:44;;;;;;;16.33;11.80;;;10.10;91.90;;;;;;5045754;28;20556;-74
2023/05/15 05:10:10;;;;;;;15.90;11.65;;;10.10;91.60;;;;;;5053164;28;20495;-77
2023/05/15 05:12:35;;;;;;;16.52;12.98;;;10.20;91.40;;;;;;5044750;28;20155;-76
2023/05/15 05:15:01;;;;;;;17.17;11.98;;;10.40;91.30;;;;;;5046077;28;20021;-75
2023/05/15 05:17:28;;;;;;;15.52;11.48;;;10.50;90.70;;;;;;5046384;28;20033;-76
2023/05/15 05:19:53;;;;;;;14.60;11.52;;;10.70;89.90;;;;;;5047278;28;20033;-75
2023/05/15 05:22:19;;;;;;;17.73;12.25;;;10.80;89.50;;;;;;5048405;28;20037;-76
2023/05/15 05:24:44;;;;;;;24.33;12.07;;;11.00;89.00;;;;;;5051460;28;20175;-75
2023/05/15 05:27:10;;;;;;;16.10;11.45;;;11.10;88.80;;;;;;5048225;28;20357;-75
2023/05/15 05:29:36;;;;;;;18.88;11.45;;;11.20;88.60;;;;;;5046689;28;20116;-77
2023/05/15 05:32:01;;;;;;;16.05;10.75;;;11.30;88.40;;;;;;5048274;28;20045;-76
2023/05/15 05:34:27;;;;;;;13.00;9.90;;;11.40;88.00;;;;;;5046295;28;20461;-76
2023/05/15 05:36:52;;;;;;;17.80;10.35;;;11.50;87.40;;;;;;5051831;28;20029;-76
2023/05/15 05:39:18;;;;;;;14.82;9.98;;;11.70;87.40;;;;;;5050468;28;20106;-76
2023/05/15 05:41:43;;;;;;;13.05;9.68;;;11.80;86.80;;;;;;5055417;28;20036;-76
2023/05/15 05:44:09;;;;;;;13.07;9.90;;;12.00;86.20;;;;;;5044364;28;20401;-76
2023/05/15 05:46:35;;;;;;;13.57;9.48;;;12.10;85.80;;;;;;5040396;28;20032;-76
2023/05/15 05:49:00;;;;;;;12.68;9.38;;;12.30;85.60;;;;;;5061388;28;20379;-75
2023/05/15 05:51:26;;;;;;;13.70;9.40;;;12.40;85.10;;;;;;5045137;28;20108;-75
2023/05/15 05:53:51;;;;;;;11.85;8.60;;;12.60;84.70;;;;;;5048618;28;20028;-75
2023/05/15 05:56:17;;;;;;;12.93;9.15;;;12.70;84.70;;;;;;5047021;28;20030;-75
2023/05/15 05:58:42;;;;;;;13.05;8.40;;;12.90;83.90;;;;;;5048555;28;20112;-76
2023/05/15 06:01:08;;;;;;;14.52;8.73;;;13.00;83.40;;;;;;5050485;28;20567;-76
2023/05/15 06:03:34;;;;;;;10.38;7.95;;;13.20;83.50;;;;;;5050796;28;20035;-76
2023/05/15 06:05:59;;;;;;;10.27;7.93;;;13.30;83.00;;;;;;5048688;28;20119;-75
2023/05/15 06:08:25;;;;;;;10.77;7.18;;;13.50;82.40;;;;;;5046618;28;20028;-76
2023/05/15 06:10:51;;;;;;;15.48;7.90;;;13.60;81.30;;;;;;5052930;28;20055;-76
2023/05/15 06:13:16;;;;;;;12.10;8.05;;;13.80;82.00;;;;;;5047664;28;20018;-76
2023/05/15 06:15:42;;;;;;;9.82;7.07;;;14.00;81.20;;;;;;5043247;28;20016;-75
2023/05/15 06:18:08;;;;;;;11.10;7.80;;;14.10;81.40;;;;;;5048713;28;20032;-76
2023/05/15 06:20:33;;;;;;;11.77;7.80;;;14.30;80.90;;;;;;5049452;28;20052;-75
2023/05/15 06:22:59;;;;;;;11.98;7.70;;;14.40;79.40;;;;;;5048043;28;20720;-75
2023/05/15 06:25:24;;;;;;;9.52;6.95;;;14.50;79.00;;;;;;5052457;28;20045;-75
2023/05/15 06:27:50;;;;;;;9.13;6.47;;;14.70;78.30;;;;;;5050869;28;20045;-75
2023/05/15 06:30:15;;;;;;;9.75;7.20;;;14.90;78.00;;;;;;5053867;28;20171;-75
2023/05/15 06:32:41;;;;;;;10.85;7.80;;;15.00;78.00;;;;;;5042698;28;20418;-76
2023/05/15 06:35:08;;;;;;;13.68;8.75;;;15.30;77.10;;;;;;5041602;28;20033;-76
2023/05/15 06:37:34;;;;;;;10.43;7.78;;;15.40;79.60;;;;;;5043017;28;20028;-76
2023/05/15 06:40:00;;;;;;;13.20;8.75;;;15.40;76.20;;;;;;5051586;28;20037;-76
2023/05/15 06:42:25;;;;;;;14.30;8.95;;;15.60;76.70;;;;;;5050364;28;20025;-75
2023/05/15 06:44:51;;;;;;;17.77;10.18;;;15.70;76.70;;;;;;5047488;28;20029;-75
2023/05/15 06:47:16;;;;;;;12.50;10.38;;;16.00;77.60;;;;;;5040690;28;20020;-75
2023/05/15 06:49:42;;;;;;;13.48;10.10;;;16.00;77.50;;;;;;5041482;28;20374;-75
2023/05/15 06:52:07;;;;;;;13.55;9.95;;;16.20;76.50;;;;;;5048655;28;20061;-76
2023/05/15 06:54:33;;;;;;;18.20;11.68;;;16.30;76.60;;;;;;5040969;28;20361;-76
2023/05/15 06:56:58;;;;;;;14.77;10.45;;;16.50;75.90;;;;;;5056812;28;20631;-75
2023/05/15 06:59:24;;;;;;;12.18;10.13;;;16.60;74.90;;;;;;5044296;28;20027;-76
2023/05/15 07:01:49;;;;;;;15.50;10.85;;;17.00;77.00;;;;;;5051849;28;20060;-76
2023/05/15 07:04:15;;;;;;;12.30;9.90;;;17.10;76.30;;;;;;5047915;28;20032;-75
2023/05/15 07:06:41;;;;;;;11.88;9.38;;;17.10;73.10;;;;;;5047413;28;20048;-76
2023/05/15 07:09:06;;;;;;;9.10;7.78;;;17.20;70.90;;;;;;5055029;28;20086;-76
2023/05/15 07:11:37;;;;;;;13.43;8.35;;;17.50;70.60;;;;;;5052546;28;20021;-73
2023/05/15 07:14:03;;;;;;;12.70;8.13;;;17.70;73.10;;;;;;5050073;28;20031;-73
2023/05/15 07:16:29;;;;;;;15.27;7.97;;;18.00;68.90;;;;;;5054922;28;20033;-72
2023/05/15 07:18:54;;;;;;;13.77;8.38;;;17.80;68.00;;;;;;5037149;28;20041;-73
2023/05/15 07:21:20;;;;;;;11.55;7.68;;;18.00;68.70;;;;;;5048416;28;20037;-74
2023/05/15 07:23:45;;;;;;;9.27;7.22;;;18.30;67.80;;;;;;5049695;28;20033;-73
2023/05/15 07:26:13;;;;;;;8.88;6.82;;;18.50;67.10;;;;;;5050873;28;20543;-73
2023/05/15 07:28:39;;;;;;;9.65;6.78;;;18.50;66.00;;;;;;5049224;28;20544;-73
2023/05/15 07:31:04;;;;;;;8.68;6.47;;;18.60;64.40;;;;;;5042698;28;20108;-72
2023/05/15 07:33:30;;;;;;;8.70;5.40;;;18.80;66.40;;;;;;5040169;28;20017;-73
2023/05/15 07:35:55;;;;;;;7.53;4.93;;;19.00;63.20;;;;;;5048523;28;20036;-72
2023/05/15 07:38:21;;;;;;;6.75;4.15;;;18.90;60.10;;;;;;5051565;28;20404;-73
2023/05/15 07:40:46;;;;;;;5.80;3.67;;;19.30;60.40;;;;;;5058490;28;20035;-73
2023/05/15 07:43:11;;;;;;;6.13;3.13;;;19.30;54.60;;;;;;5047585;28;20031;-72
2023/05/15 07:45:37;;;;;;;6.50;2.80;;;19.40;52.00;;;;;;5055381;28;20401;-72
2023/05/15 07:48:13;;;;;;;5.18;2.88;;;19.30;50.60;;;;;;5048830;28;20045;-74
2023/05/15 07:50:38;;;;;;;5.65;2.67;;;19.50;53.20;;;;;;5042348;28;20040;-72
2023/05/15 07:53:04;;;;;;;5.47;2.63;;;19.70;49.30;;;;;;5046355;28;20534;-72
2023/05/15 07:55:29;;;;;;;6.85;2.80;;;19.80;52.20;;;;;;5043850;28;20036;-73
2023/05/15 07:57:55;;;;;;;6.45;2.85;;;20.00;50.40;;;;;;5047559;28;20454;-72
2023/05/15 08:00:20;;;;;;;7.13;3.53;;;20.10;49.90;;;;;;5050240;28;20033;-73
2023/05/15 08:02:47;;;;;;;6.07;3.08;;;20.40;52.40;;;;;;5054647;28;20017;-73
2023/05/15 08:05:13;;;;;;;4.78;2.90;;;20.40;50.00;;;;;;5048243;28;20523;-73
2023/05/15 08:07:38;;;;;;;6.35;3.03;;;20.20;48.40;;;;;;5050879;28;20108;-73
2023/05/15 08:10:05;;;;;;;6.32;3.10;;;20.10;50.10;;;;;;5049233;28;20461;-74
2023/05/15 08:12:30;;;;;;;7.68;3.13;;;20.00;49.50;;;;;;5051691;28;20023;-73
2023/05/15 08:14:56;;;;;;;23.85;5.32;;;20.00;47.90;;;;;;5057345;28;20025;-73
2023/05/15 08:17:23;;;;;;;19.88;5.47;;;20.30;49.70;;;;;;5054025;28;20078;-73
2023/05/15 08:19:48;;;;;;;6.13;3.35;;;20.40;50.50;;;;;;5052589;28;20032;-74
2023/05/15 08:22:14;;;;;;;7.80;3.30;;;20.60;47.10;;;;;;5043700;28;20404;-73
2023/05/15 08:24:40;;;;;;;7.88;2.83;;;20.40;48.20;;;;;;5050665;28;20056;-74
2023/05/15 08:27:07;;;;;;;5.97;3.00;;;20.40;47.90;;;;;;5050676;28;20472;-73
2023/05/15 08:29:34;;;;;;;5.57;3.28;;;20.60;49.40;;;;;;5052164;28;20029;-74
2023/05/15 08:32:00;;;;;;;4.82;2.55;;;20.80;48.40;;;;;;5046516;28;20040;-73
2023/05/15 08:34:25;;;;;;;5.50;2.78;;;20.70;47.20;;;;;;5042523;28;20030;-73
2023/05/15 08:36:51;;;;;;;9.45;2.80;;;21.10;49.70;;;;;;5050261;28;20191;-73
2023/05/15 08:39:17;;;;;;;5.93;2.78;;;21.10;46.10;;;;;;5032381;28;20049;-73
2023/05/15 08:41:57;;;;;;;4.90;2.40;;;21.50;46.60;;;;;;5056383;28;20100;-73
2023/05/15 08:44:23;;;;;;;7.82;2.75;;;21.50;45.30;;;;;;5050936;28;20104;-73
2023/05/15 08:46:49;;;;;;;6.05;2.47;;;21.50;45.60;;;;;;5051711;28;20067;-73
2023/05/15 08:49:49;;;;;;;5.60;2.70;;;21.70;44.70;;;;;;5040893;28;21035;-73
2023/05/15 08:52:15;;;;;;;6.50;2.80;;;21.70;46.70;;;;;;5044027;28;20454;-73
2023/05/15 08:54:41;;;;;;;5.07;2.50;;;21.80;46.10;;;;;;5048372;28;20025;-74
2023/05/15 08:57:09;;;;;;;7.82;2.80;;;22.00;45.90;;;;;;5039837;28;20036;-72
2023/05/15 08:59:36;;;;;;;4.43;2.33;;;21.70;44.50;;;;;;5044534;28;20092;-73
2023/05/15 09:02:01;;;;;;;5.85;2.95;;;21.80;42.70;;;;;;5045969;28;20484;-74
2023/05/15 09:04:27;;;;;;;5.45;2.55;;;21.70;44.00;;;;;;5045947;28;20056;-72
2023/05/15 09:06:53;;;;;;;4.38;2.20;;;21.60;44.20;;;;;;5047943;28;20500;-73
2023/05/15 09:09:19;;;;;;;4.07;2.00;;;22.00;43.80;;;;;;5060999;28;20060;-73
2023/05/15 09:11:47;;;;;;;4.50;2.35;;;22.50;43.20;;;;;;5060694;28;20100;-73
2023/05/15 09:14:13;;;;;;;4.43;2.03;;;22.30;40.60;;;;;;5051251;28;20350;-74
2023/05/15 09:16:38;;;;;;;3.92;2.10;;;22.20;40.80;;;;;;5052015;28;20035;-73
2023/05/15 09:19:05;;;;;;;5.28;2.00;;;22.50;40.20;;;;;;5061919;28;20416;-73
2023/05/15 09:21:31;;;;;;;5.68;2.20;;;22.20;40.90;;;;;;5050845;28;20123;-73
2023/05/15 09:24:22;;;;;;;3.45;1.85;;;22.60;41.50;;;;;;5053897;28;20178;-72
2023/05/15 09:27:02;;;;;;;2.95;1.73;;;22.50;38.80;;;;;;5057232;28;20028;-73
2023/05/15 09:29:29;;;;;;;3.33;1.90;;;22.50;40.20;;;;;;5052747;28;20082;-72
2023/05/15 09:31:55;;;;;;;4.13;1.55;;;22.50;40.10;;;;;;5042564;28;20031;-73
2023/05/15 09:34:31;;;;;;;3.05;1.77;;;22.30;38.20;;;;;;5047708;28;20029;-73
2023/05/15 09:36:57;;;;;;;3.13;1.90;;;22.70;42.40;;;;;;5064028;28;20025;-73
2023/05/15 09:39:23;;;;;;;6.93;1.98;;;23.00;39.50;;;;;;5048482;28;20029;-72
2023/05/15 09:41:48;;;;;;;4.95;2.10;;;23.30;41.10;;;;;;5058370;28;20036;-72
2023/05/15 09:44:27;;;;;;;5.82;2.15;;;23.40;39.60;;;;;;5050417;28;20028;-73
2023/05/15 09:46:52;;;;;;;3.90;2.00;;;23.70;41.20;;;;;;5050363;28;20135;-73
2023/05/15 09:49:18;;;;;;;3.15;1.77;;;23.20;40.40;;;;;;5041569;28;20561;-74
2023/05/15 09:51:47;;;;;;;2.45;1.55;;;23.60;38.70;;;;;;5042149;28;20033;-73
2023/05/15 09:54:17;;;;;;;7.32;2.08;;;23.90;38.90;;;;;;5048119;28;20068;-73
2023/05/15 09:56:44;;;;;;;4.10;1.80;;;24.00;39.40;;;;;;5052037;28;20065;-73
2023/05/15 09:59:14;;;;;;;3.63;1.88;;;23.70;37.50;;;;;;5052313;28;20090;-74
2023/05/15 10:01:42;;;;;;;3.53;1.90;;;23.80;38.10;;;;;;5049448;28;20033;-74
2023/05/15 10:04:08;;;;;;;5.65;2.30;;;24.00;40.60;;;;;;5042207;28;20102;-75
2023/05/15 10:06:38;;;;;;;12.07;2.75;;;23.90;36.90;;;;;;5051752;28;20032;-75
2023/05/15 10:09:05;;;;;;;4.20;1.77;;;24.10;37.50;;;;;;5063671;28;20099;-75
2023/05/15 10:11:33;;;;;;;4.40;2.00;;;23.90;39.80;;;;;;5053271;28;20029;-74
2023/05/15 10:13:59;;;;;;;4.95;1.60;;;24.70;40.80;;;;;;5055128;28;20025;-75
2023/05/15 10:16:26;;;;;;;3.83;1.77;;;24.60;37.60;;;;;;5054948;28;20706;-75
2023/05/15 10:18:51;;;;;;;3.92;1.90;;;24.50;37.00;;;;;;5049978;28;20369;-75
2023/05/15 10:21:19;;;;;;;4.45;2.25;;;24.50;35.80;;;;;;5049855;28;20029;-75
2023/05/15 10:23:48;;;;;;;5.45;1.88;;;24.40;37.20;;;;;;5061141;28;20108;-76
2023/05/15 10:26:38;;;;;;;5.43;2.28;;;24.80;36.90;;;;;;5068214;28;20082;-76
2023/05/15 10:29:19;;;;;;;4.70;1.88;;;23.70;35.80;;;;;;5059762;28;20084;-75
2023/05/15 10:31:47;;;;;;;6.35;2.90;;;24.60;37.20;;;;;;5060487;28;20051;-75
2023/05/15 10:34:13;;;;;;;5.32;1.90;;;24.60;36.50;;;;;;5061484;28;20030;-75
2023/05/15 10:36:41;;;;;;;5.10;2.10;;;24.30;35.50;;;;;;5057069;28;20666;-76
2023/05/15 10:39:07;;;;;;;6.25;2.28;;;23.80;34.50;;;;;;5053403;28;20044;-75
2023/05/15 10:41:35;;;;;;;4.20;2.20;;;23.50;37.70;;;;;;5056703;28;20021;-76
2023/05/15 10:44:01;;;;;;;2.85;1.83;;;24.30;36.60;;;;;;5059588;28;20377;-76
2023/05/15 10:46:29;;;;;;;4.03;2.00;;;24.20;35.10;;;;;;5055824;28;20032;-77
2023/05/15 10:48:56;;;;;;;5.30;2.08;;;24.90;37.20;;;;;;5054018;28;20021;-76
2023/05/15 10:51:26;;;;;;;3.63;1.90;;;25.60;35.40;;;;;;5045457;28;20033;-75
2023/05/15 10:53:53;;;;;;;3.80;1.98;;;25.60;33.00;;;;;;5044994;28;20029;-75
2023/05/15 10:56:18;;;;;;;4.20;2.33;;;25.90;35.10;;;;;;5050033;28;20032;-76
2023/05/15 10:58:49;;;;;;;3.45;1.88;;;25.40;33.70;;;;;;5054930;28;20033;-76
2023/05/15 11:01:30;;;;;;;3.88;1.73;;;25.50;32.20;;;;;;5049834;28;20345;-76
2023/05/15 11:04:16;;;;;;;5.28;1.83;;;25.00;31.40;;;;;;5047373;28;20032;-76
2023/05/15 11:06:45;;;;;;;6.05;2.10;;;24.80;31.80;;;;;;5041595;28;20029;-76
2023/05/15 11:09:26;;;;;;;3.10;1.40;;;25.30;35.60;;;;;;5047381;28;20130;-76
2023/05/15 11:11:55;;;;;;;3.50;1.70;;;26.00;33.40;;;;;;5043834;28;20037;-72
2023/05/15 11:14:26;;;;;;;4.90;1.60;;;26.10;33.30;;;;;;5039758;28;20437;-73
2023/05/15 11:16:51;;;;;;;5.15;2.30;;;26.20;32.30;;;;;;5046421;28;20030;-73
2023/05/15 11:19:49;;;;;;;5.70;1.75;;;25.00;33.00;;;;;;5051328;28;20035;-74
2023/05/15 11:22:20;;;;;;;4.40;2.08;;;25.30;31.70;;;;;;5022551;28;20082;-72
2023/05/15 11:24:52;;;;;;;4.55;2.00;;;24.90;31.60;;;;;;5039205;28;20049;-73
2023/05/15 11:27:29;;;;;;;11.93;3.70;;;25.40;32.00;;;;;;5039869;28;20032;-74
2023/05/15 11:30:14;;;;;;;6.43;2.22;;;25.70;33.80;;;;;;5040956;28;20124;-73
2023/05/15 11:32:46;;;;;;;5.00;1.73;;;25.80;33.60;;;;;;5046338;28;20032;-73
2023/05/15 11:35:31;;;;;;;4.57;2.00;;;26.00;32.00;;;;;;5047232;28;20032;-74
2023/05/15 11:38:09;;;;;;;9.73;2.72;;;25.10;35.00;;;;;;5044360;28;20037;-73
2023/05/15 11:40:53;;;;;;;6.22;2.30;;;25.70;35.80;;;;;;5047223;28;20032;-73
2023/05/15 11:43:27;;;;;;;5.22;2.28;;;26.30;33.60;;;;;;5047643;28;20053;-73
2023/05/15 11:46:07;;;;;;;6.28;1.85;;;26.30;34.50;;;;;;5041050;28;20021;-72
2023/05/15 11:48:34;;;;;;;4.45;2.13;;;26.60;33.50;;;;;;5053836;28;20088;-73
2023/05/15 11:51:01;;;;;;;3.53;2.10;;;26.30;34.40;;;;;;5051347;28;20036;-74
2023/05/15 11:53:28;;;;;;;4.35;1.95;;;26.20;34.30;;;;;;5041699;28;20342;-73
2023/05/15 11:55:53;;;;;;;5.22;2.50;;;26.30;31.80;;;;;;5051171;28;20090;-73
2023/05/15 11:58:20;;;;;;;4.88;2.22;;;26.10;32.80;;;;;;5054506;28;20029;-72
2023/05/15 12:00:47;;;;;;;4.25;2.25;;;26.30;34.20;;;;;;5045736;28;20123;-73
2023/05/15 12:03:46;;;;;;;3.28;1.90;;;26.50;33.90;;;;;;5045813;28;20060;-73
2023/05/15 12:06:11;;;;;;;5.63;2.00;;;25.90;32.50;;;;;;5023475;28;20069;-74
2023/05/15 12:08:37;;;;;;;3.53;1.85;;;26.50;32.50;;;;;;5044543;28;20473;-74
2023/05/15 12:11:04;;;;;;;3.63;2.13;;;27.00;32.20;;;;;;5042706;28;20025;-73
2023/05/15 12:13:31;;;;;;;4.95;2.13;;;26.60;32.00;;;;;;5045057;28;20029;-73
2023/05/15 12:15:57;;;;;;;6.57;2.25;;;26.60;32.20;;;;;;5044789;28;20570;-73
2023/05/15 12:18:23;;;;;;;5.53;2.10;;;26.10;32.80;;;;;;5049335;28;20044;-73
2023/05/15 12:20:51;;;;;;;5.93;2.33;;;25.70;34.20;;;;;;5048313;28;20052;-73
2023/05/15 12:23:19;;;;;;;4.38;2.30;;;25.00;34.00;;;;;;5046247;28;20082;-73
2023/05/15 12:25:46;;;;;;;4.35;2.28;;;24.50;33.80;;;;;;5049437;28;20520;-72
2023/05/15 12:28:12;;;;;;;5.28;2.53;;;23.50;35.70;;;;;;5047819;28;20036;-73
2023/05/15 12:30:38;;;;;;;8.27;2.80;;;23.80;36.60;;;;;;5046814;28;20028;-72
2023/05/15 12:33:05;;;;;;;5.70;2.60;;;23.00;36.90;;;;;;5043240;28;20083;-72
2023/05/15 12:35:35;;;;;;;6.30;2.80;;;22.60;38.20;;;;;;5046997;28;20024;-73
2023/05/15 12:38:05;;;;;;;4.35;2.50;;;22.50;38.40;;;;;;5042546;28;20021;-72
2023/05/15 12:40:35;;;;;;;6.20;3.40;;;22.30;37.70;;;;;;5045559;28;20039;-72
2023/05/15 12:43:07;;;;;;;9.75;4.80;;;22.10;40.10;;;;;;5048267;28;20041;-72
2023/05/15 12:45:35;;;;;;;10.52;4.78;;;22.70;45.60;;;;;;5046913;28;20420;-72